Terminal Aerodrome Forecast
Issued by NWS Shreveport, LA

Home | Current Version | Previous Version | Text Only | Print | Product List | Glossary On
Versions: 1 2 3 4 5 6 7 8 9 10 11 12 13
000
FTUS44 KSHV 200500 RRA
TAFTXK
TAF
KTXK 200541Z 2006/2106 06004KT 5SM BR OVC010
      TEMPO 2008/2011 3SM BR SCT010 OVC025
     FM201100 05003KT 3SM BR FEW008 OVC030
     FM201600 06004KT 6SM BR SCT012 OVC025
     FM201800 07004KT P6SM BKN025=

USA.gov is the U.S. government's official web portal to all federal, state and local government web resources and services.